sensor_id;sensor_type;location;lat;lon;timestamp;pressure;altitude;pressure_sealevel;temperature
50206;BMP280;36098;48.390;10.856;2023-03-20T00:01:27;96223.31;;;23.59
50206;BMP280;36098;48.390;10.856;2023-03-20T00:03:54;96236.78;;;23.48
50206;BMP280;36098;48.390;10.856;2023-03-20T00:06:20;96235.22;;;23.47
50206;BMP280;36098;48.390;10.856;2023-03-20T00:08:46;96237.56;;;23.48
50206;BMP280;36098;48.390;10.856;2023-03-20T00:11:27;96229.16;;;23.41
50206;BMP280;36098;48.390;10.856;2023-03-20T00:13:57;96238.66;;;23.42
50206;BMP280;36098;48.390;10.856;2023-03-20T00:16:24;96246.81;;;23.41
50206;BMP280;36098;48.390;10.856;2023-03-20T00:18:51;96238.09;;;23.45
50206;BMP280;36098;48.390;10.856;2023-03-20T00:21:17;96244.97;;;23.46
50206;BMP280;36098;48.390;10.856;2023-03-20T00:23:42;96248.16;;;23.38
50206;BMP280;36098;48.390;10.856;2023-03-20T00:26:10;96247.31;;;23.43
50206;BMP280;36098;48.390;10.856;2023-03-20T00:28:37;96244.69;;;23.43
50206;BMP280;36098;48.390;10.856;2023-03-20T00:31:05;96241.81;;;23.44
50206;BMP280;36098;48.390;10.856;2023-03-20T00:33:37;96237.59;;;23.38
50206;BMP280;36098;48.390;10.856;2023-03-20T00:36:02;96239.19;;;23.39
50206;BMP280;36098;48.390;10.856;2023-03-20T00:38:30;96246.03;;;23.35
50206;BMP280;36098;48.390;10.856;2023-03-20T00:40:55;96248.13;;;23.33
50206;BMP280;36098;48.390;10.856;2023-03-20T00:43:20;96245.78;;;23.37
50206;BMP280;36098;48.390;10.856;2023-03-20T00:45:46;96246.03;;;23.40
50206;BMP280;36098;48.390;10.856;2023-03-20T00:48:12;96246.03;;;23.40
50206;BMP280;36098;48.390;10.856;2023-03-20T00:50:38;96241.81;;;23.34
50206;BMP280;36098;48.390;10.856;2023-03-20T00:53:05;96245.25;;;23.25
50206;BMP280;36098;48.390;10.856;2023-03-20T00:55:30;96249.19;;;23.42
50206;BMP280;36098;48.390;10.856;2023-03-20T00:57:56;96243.66;;;23.34
50206;BMP280;36098;48.390;10.856;2023-03-20T01:02:48;96243.94;;;23.37
50206;BMP280;36098;48.390;10.856;2023-03-20T01:05:13;96246.56;;;23.27
50206;BMP280;36098;48.390;10.856;2023-03-20T01:07:38;96240.81;;;23.21
50206;BMP280;36098;48.390;10.856;2023-03-20T01:10:04;96247.88;;;23.25
50206;BMP280;36098;48.390;10.856;2023-03-20T01:12:30;96239.75;;;23.22
50206;BMP280;36098;48.390;10.856;2023-03-20T01:14:56;96235.78;;;23.24
50206;BMP280;36098;48.390;10.856;2023-03-20T01:17:21;96239.97;;;23.25
50206;BMP280;36098;48.390;10.856;2023-03-20T01:19:47;96238.41;;;23.29
50206;BMP280;36098;48.390;10.856;2023-03-20T01:22:13;96233.91;;;23.29
50206;BMP280;36098;48.390;10.856;2023-03-20T01:24:39;96237.06;;;23.36
50206;BMP280;36098;48.390;10.856;2023-03-20T01:27:04;96238.41;;;23.24
50206;BMP280;36098;48.390;10.856;2023-03-20T01:29:32;96228.38;;;23.26
50206;BMP280;36098;48.390;10.856;2023-03-20T01:31:57;96228.16;;;23.23
50206;BMP280;36098;48.390;10.856;2023-03-20T01:34:22;96233.94;;;23.25
50206;BMP280;36098;48.390;10.856;2023-03-20T01:36:52;96232.34;;;23.28
50206;BMP280;36098;48.390;10.856;2023-03-20T01:39:17;96228.91;;;23.23
50206;BMP280;36098;48.390;10.856;2023-03-20T01:41:45;96229.19;;;23.17
50206;BMP280;36098;48.390;10.856;2023-03-20T01:44:15;96224.72;;;23.17
50206;BMP280;36098;48.390;10.856;2023-03-20T01:46:41;96220.78;;;23.20
50206;BMP280;36098;48.390;10.856;2023-03-20T01:49:08;96225.50;;;23.23
50206;BMP280;36098;48.390;10.856;2023-03-20T01:51:53;96213.09;;;23.33
50206;BMP280;36098;48.390;10.856;2023-03-20T01:54:21;96219.72;;;23.16
50206;BMP280;36098;48.390;10.856;2023-03-20T01:56:52;96223.41;;;23.20
50206;BMP280;36098;48.390;10.856;2023-03-20T01:59:40;96225.50;;;23.08
50206;BMP280;36098;48.390;10.856;2023-03-20T02:02:07;96223.91;;;23.07
50206;BMP280;36098;48.390;10.856;2023-03-20T02:04:35;96223.38;;;23.10
50206;BMP280;36098;48.390;10.856;2023-03-20T02:07:01;96218.16;;;23.20
50206;BMP280;36098;48.390;10.856;2023-03-20T02:09:27;96217.31;;;23.24
50206;BMP280;36098;48.390;10.856;2023-03-20T02:11:52;96221.28;;;23.17
50206;BMP280;36098;48.390;10.856;2023-03-20T02:14:18;96231.56;;;23.18
50206;BMP280;36098;48.390;10.856;2023-03-20T02:16:44;96223.94;;;23.17
50206;BMP280;36098;48.390;10.856;2023-03-20T02:19:11;96226.81;;;23.20
50206;BMP280;36098;48.390;10.856;2023-03-20T02:29:46;96234.47;;;23.17
50206;BMP280;36098;48.390;10.856;2023-03-20T02:32:27;96226.03;;;23.15
50206;BMP280;36098;48.390;10.856;2023-03-20T02:40:07;96231.06;;;23.11
50206;BMP280;36098;48.390;10.856;2023-03-20T02:45:15;96237.63;;;22.99
50206;BMP280;36098;48.390;10.856;2023-03-20T02:47:47;96236.03;;;23.08
50206;BMP280;36098;48.390;10.856;2023-03-20T02:53:14;96240.25;;;23.14
50206;BMP280;36098;48.390;10.856;2023-03-20T02:58:21;96250.25;;;23.07
50206;BMP280;36098;48.390;10.856;2023-03-20T03:00:50;96256.06;;;23.14
50206;BMP280;36098;48.390;10.856;2023-03-20T03:03:28;96256.56;;;23.11
50206;BMP280;36098;48.390;10.856;2023-03-20T03:06:06;96258.19;;;23.12
50206;BMP280;36098;48.390;10.856;2023-03-20T03:08:34;96267.16;;;23.21
50206;BMP280;36098;48.390;10.856;2023-03-20T03:11:03;96253.94;;;23.06
50206;BMP280;36098;48.390;10.856;2023-03-20T03:13:29;96263.94;;;23.09
50206;BMP280;36098;48.390;10.856;2023-03-20T03:15:56;96265.78;;;23.03
50206;BMP280;36098;48.390;10.856;2023-03-20T03:18:26;96252.66;;;23.08
50206;BMP280;36098;48.390;10.856;2023-03-20T03:20:54;96265.84;;;23.13
50206;BMP280;36098;48.390;10.856;2023-03-20T03:26:05;96270.81;;;23.05
50206;BMP280;36098;48.390;10.856;2023-03-20T03:31:04;96280.03;;;23.02
50206;BMP280;36098;48.390;10.856;2023-03-20T03:33:31;96283.19;;;23.04
50206;BMP280;36098;48.390;10.856;2023-03-20T03:36:03;96285.81;;;22.99
50206;BMP280;36098;48.390;10.856;2023-03-20T03:38:36;96283.47;;;22.98
50206;BMP280;36098;48.390;10.856;2023-03-20T03:41:11;96285.28;;;22.87
50206;BMP280;36098;48.390;10.856;2023-03-20T03:43:41;96282.94;;;23.01
50206;BMP280;36098;48.390;10.856;2023-03-20T03:46:12;96285.03;;;22.99
50206;BMP280;36098;48.390;10.856;2023-03-20T03:48:45;96291.88;;;22.95
50206;BMP280;36098;48.390;10.856;2023-03-20T03:51:13;96288.97;;;23.01
50206;BMP280;36098;48.390;10.856;2023-03-20T03:53:41;96289.78;;;23.02
50206;BMP280;36098;48.390;10.856;2023-03-20T03:56:12;96281.31;;;22.95
50206;BMP280;36098;48.390;10.856;2023-03-20T03:58:39;96283.47;;;22.98
50206;BMP280;36098;48.390;10.856;2023-03-20T04:01:06;96287.66;;;23.04
50206;BMP280;36098;48.390;10.856;2023-03-20T04:03:37;96279.75;;;22.94
50206;BMP280;36098;48.390;10.856;2023-03-20T04:06:03;96289.75;;;22.87
50206;BMP280;36098;48.390;10.856;2023-03-20T04:08:30;96298.19;;;22.84
50206;BMP280;36098;48.390;10.856;2023-03-20T04:10:55;96296.09;;;22.86
50206;BMP280;36098;48.390;10.856;2023-03-20T04:13:20;96294.50;;;22.95
50206;BMP280;36098;48.390;10.856;2023-03-20T04:15:46;96300.56;;;22.95
50206;BMP280;36098;48.390;10.856;2023-03-20T04:18:14;96301.91;;;23.03
50206;BMP280;36098;48.390;10.856;2023-03-20T04:20:40;96307.69;;;23.00
50206;BMP280;36098;48.390;10.856;2023-03-20T04:23:05;96312.69;;;23.01
50206;BMP280;36098;48.390;10.856;2023-03-20T04:25:31;96315.06;;;22.98
50206;BMP280;36098;48.390;10.856;2023-03-20T04:27:56;96304.50;;;22.88
50206;BMP280;36098;48.390;10.856;2023-03-20T04:30:22;96317.94;;;22.91
50206;BMP280;36098;48.390;10.856;2023-03-20T04:32:47;96316.09;;;22.87
50206;BMP280;36098;48.390;10.856;2023-03-20T04:35:12;96327.16;;;22.79
50206;BMP280;36098;48.390;10.856;2023-03-20T04:37:37;96324.25;;;22.85
50206;BMP280;36098;48.390;10.856;2023-03-20T04:40:03;96327.41;;;22.82
50206;BMP280;36098;48.390;10.856;2023-03-20T04:42:28;96319.25;;;22.94
50206;BMP280;36098;48.390;10.856;2023-03-20T04:44:53;96322.38;;;22.76
50206;BMP280;36098;48.390;10.856;2023-03-20T04:47:19;96319.25;;;22.94
50206;BMP280;36098;48.390;10.856;2023-03-20T04:49:44;96330.31;;;22.91
50206;BMP280;36098;48.390;10.856;2023-03-20T04:52:09;96332.44;;;22.84
50206;BMP280;36098;48.390;10.856;2023-03-20T04:54:35;96333.47;;;22.83
50206;BMP280;36098;48.390;10.856;2023-03-20T04:57:00;96332.44;;;22.84
50206;BMP280;36098;48.390;10.856;2023-03-20T04:59:25;96327.16;;;22.84
50206;BMP280;36098;48.390;10.856;2023-03-20T05:01:50;96333.47;;;22.93
50206;BMP280;36098;48.390;10.856;2023-03-20T05:04:16;96328.72;;;22.85
50206;BMP280;36098;48.390;10.856;2023-03-20T05:06:41;96331.34;;;22.65
50206;BMP280;36098;48.390;10.856;2023-03-20T05:09:07;96332.31;;;22.39
50206;BMP280;36098;48.390;10.856;2023-03-20T05:11:33;96332.31;;;22.39
50206;BMP280;36098;48.390;10.856;2023-03-20T05:13:58;96338.13;;;22.51
50206;BMP280;36098;48.390;10.856;2023-03-20T05:16:23;96341.34;;;22.68
50206;BMP280;36098;48.390;10.856;2023-03-20T05:18:48;96340.84;;;22.81
50206;BMP280;36098;48.390;10.856;2023-03-20T05:21:13;96342.94;;;22.89
50206;BMP280;36098;48.390;10.856;2023-03-20T05:23:39;96349.28;;;22.93
50206;BMP280;36098;48.390;10.856;2023-03-20T05:26:04;96354.28;;;22.94
50206;BMP280;36098;48.390;10.856;2023-03-20T05:28:30;96348.75;;;22.96
50206;BMP280;36098;48.390;10.856;2023-03-20T05:30:55;96359.03;;;22.97
50206;BMP280;36098;48.390;10.856;2023-03-20T05:33:20;96350.31;;;22.97
50206;BMP280;36098;48.390;10.856;2023-03-20T05:35:46;96352.72;;;22.98
50206;BMP280;36098;48.390;10.856;2023-03-20T05:38:11;96364.06;;;22.99
50206;BMP280;36098;48.390;10.856;2023-03-20T05:40:37;96357.22;;;22.98
50206;BMP280;36098;48.390;10.856;2023-03-20T05:43:02;96355.59;;;22.97
50206;BMP280;36098;48.390;10.856;2023-03-20T05:45:27;96359.84;;;22.98
50206;BMP280;36098;48.390;10.856;2023-03-20T05:47:53;96354.56;;;23.03
50206;BMP280;36098;48.390;10.856;2023-03-20T05:50:18;96357.72;;;23.10
50206;BMP280;36098;48.390;10.856;2023-03-20T05:52:45;96366.44;;;23.20
50206;BMP280;36098;48.390;10.856;2023-03-20T05:55:10;96370.16;;;23.29
50206;BMP280;36098;48.390;10.856;2023-03-20T05:57:36;96368.06;;;23.31
50206;BMP280;36098;48.390;10.856;2023-03-20T06:00:01;96378.84;;;23.34
50206;BMP280;36098;48.390;10.856;2023-03-20T06:02:26;96367.53;;;23.34
50206;BMP280;36098;48.390;10.856;2023-03-20T06:04:51;96368.84;;;23.41
50206;BMP280;36098;48.390;10.856;2023-03-20T06:07:16;96375.94;;;23.41
50206;BMP280;36098;48.390;10.856;2023-03-20T06:09:41;96370.41;;;23.42
50206;BMP280;36098;48.390;10.856;2023-03-20T06:12:07;96363.03;;;23.44
50206;BMP280;36098;48.390;10.856;2023-03-20T06:14:32;96364.09;;;23.38
50206;BMP280;36098;48.390;10.856;2023-03-20T06:16:57;96371.44;;;23.56
50206;BMP280;36098;48.390;10.856;2023-03-20T06:19:22;96366.22;;;23.41
50206;BMP280;36098;48.390;10.856;2023-03-20T06:21:48;96367.25;;;23.35
50206;BMP280;36098;48.390;10.856;2023-03-20T06:24:14;96370.16;;;23.39
50206;BMP280;36098;48.390;10.856;2023-03-20T06:26:40;96372.00;;;23.43
50206;BMP280;36098;48.390;10.856;2023-03-20T06:29:05;96374.38;;;23.55
50206;BMP280;36098;48.390;10.856;2023-03-20T06:31:30;96374.34;;;23.60
50206;BMP280;36098;48.390;10.856;2023-03-20T06:33:55;96374.34;;;23.65
50206;BMP280;36098;48.390;10.856;2023-03-20T06:36:21;96375.41;;;23.69
50206;BMP280;36098;48.390;10.856;2023-03-20T06:38:46;96376.19;;;23.74
50206;BMP280;36098;48.390;10.856;2023-03-20T06:41:11;96371.16;;;23.78
50206;BMP280;36098;48.390;10.856;2023-03-20T06:43:37;96381.72;;;23.78
50206;BMP280;36098;48.390;10.856;2023-03-20T06:46:03;96373.03;;;23.77
50206;BMP280;36098;48.390;10.856;2023-03-20T06:48:28;96380.13;;;23.77
50206;BMP280;36098;48.390;10.856;2023-03-20T06:50:54;96375.13;;;23.75
50206;BMP280;36098;48.390;10.856;2023-03-20T06:53:20;96370.13;;;23.84
50206;BMP280;36098;48.390;10.856;2023-03-20T06:55:46;96388.31;;;23.80
50206;BMP280;36098;48.390;10.856;2023-03-20T06:58:12;96378.03;;;23.84
50206;BMP280;36098;48.390;10.856;2023-03-20T07:00:37;96381.75;;;23.88
50206;BMP280;36098;48.390;10.856;2023-03-20T07:03:03;96398.34;;;23.83
50206;BMP280;36098;48.390;10.856;2023-03-20T07:05:29;96395.19;;;23.76
50206;BMP280;36098;48.390;10.856;2023-03-20T07:07:54;96397.81;;;23.96
50206;BMP280;36098;48.390;10.856;2023-03-20T07:10:19;96391.72;;;24.06
50206;BMP280;36098;48.390;10.856;2023-03-20T07:12:44;96397.19;;;24.29
50206;BMP280;36098;48.390;10.856;2023-03-20T07:15:10;96391.81;;;24.49
50206;BMP280;36098;48.390;10.856;2023-03-20T07:17:35;96401.19;;;24.17
50206;BMP280;36098;48.390;10.856;2023-03-20T07:20:00;96407.41;;;24.51
50206;BMP280;36098;48.390;10.856;2023-03-20T07:22:26;96401.91;;;24.37
50206;BMP280;36098;48.390;10.856;2023-03-20T07:24:52;96400.09;;;24.28
50206;BMP280;36098;48.390;10.856;2023-03-20T07:27:17;96415.31;;;24.61
50206;BMP280;36098;48.390;10.856;2023-03-20T07:29:43;96416.69;;;24.38
50206;BMP280;36098;48.390;10.856;2023-03-20T07:32:08;96407.19;;;24.32
50206;BMP280;36098;48.390;10.856;2023-03-20T07:34:33;96418.41;;;23.84
50206;BMP280;36098;48.390;10.856;2023-03-20T07:36:58;96423.91;;;23.73
50206;BMP280;36098;48.390;10.856;2023-03-20T07:39:24;96418.88;;;24.11
50206;BMP280;36098;48.390;10.856;2023-03-20T07:41:49;96418.84;;;24.26
50206;BMP280;36098;48.390;10.856;2023-03-20T07:44:14;96412.47;;;24.32
50206;BMP280;36098;48.390;10.856;2023-03-20T07:46:42;96423.03;;;24.32
50206;BMP280;36098;48.390;10.856;2023-03-20T07:49:08;96420.69;;;24.31
50206;BMP280;36098;48.390;10.856;2023-03-20T07:51:33;96418.84;;;24.26
50206;BMP280;36098;48.390;10.856;2023-03-20T07:53:58;96423.63;;;24.04
50206;BMP280;36098;48.390;10.856;2023-03-20T07:56:23;96416.78;;;23.93
50206;BMP280;36098;48.390;10.856;2023-03-20T07:58:49;96424.69;;;23.93
50206;BMP280;36098;48.390;10.856;2023-03-20T08:01:14;96413.63;;;23.91
50206;BMP280;36098;48.390;10.856;2023-03-20T08:03:39;96424.44;;;23.85
50206;BMP280;36098;48.390;10.856;2023-03-20T08:06:04;96417.31;;;23.75
50206;BMP280;36098;48.390;10.856;2023-03-20T08:08:31;96414.69;;;23.65
50206;BMP280;36098;48.390;10.856;2023-03-20T08:10:57;96413.09;;;23.64
50206;BMP280;36098;48.390;10.856;2023-03-20T08:13:22;96416.81;;;23.88
50206;BMP280;36098;48.390;10.856;2023-03-20T08:15:47;96405.72;;;24.01
50206;BMP280;36098;48.390;10.856;2023-03-20T08:18:12;96404.16;;;23.60
50206;BMP280;36098;48.390;10.856;2023-03-20T08:20:38;96410.75;;;23.48
50206;BMP280;36098;48.390;10.856;2023-03-20T08:23:03;96413.13;;;23.44
50206;BMP280;36098;48.390;10.856;2023-03-20T08:25:28;96405.97;;;23.45
50206;BMP280;36098;48.390;10.856;2023-03-20T08:27:57;96398.63;;;23.47
50206;BMP280;36098;48.390;10.856;2023-03-20T08:30:22;96401.00;;;23.58
50206;BMP280;36098;48.390;10.856;2023-03-20T08:32:47;96395.44;;;23.75
50206;BMP280;36098;48.390;10.856;2023-03-20T08:35:12;96396.47;;;23.99
50206;BMP280;36098;48.390;10.856;2023-03-20T08:37:37;96397.22;;;24.24
50206;BMP280;36098;48.390;10.856;2023-03-20T08:40:04;96394.47;;;24.54
50206;BMP280;36098;48.390;10.856;2023-03-20T08:42:30;96388.88;;;24.71
50206;BMP280;36098;48.390;10.856;2023-03-20T08:44:55;96399.13;;;24.72
50206;BMP280;36098;48.390;10.856;2023-03-20T08:47:20;96394.88;;;24.81
50206;BMP280;36098;48.390;10.856;2023-03-20T08:49:46;96403.63;;;24.77
50206;BMP280;36098;48.390;10.856;2023-03-20T08:52:12;96402.25;;;24.84
50206;BMP280;36098;48.390;10.856;2023-03-20T08:54:37;96399.03;;;24.92
50206;BMP280;36098;48.390;10.856;2023-03-20T08:57:02;96405.88;;;24.98
50206;BMP280;36098;48.390;10.856;2023-03-20T08:59:27;96402.25;;;24.84
50206;BMP280;36098;48.390;10.856;2023-03-20T09:01:53;96401.50;;;24.79
50206;BMP280;36098;48.390;10.856;2023-03-20T09:04:18;96419.53;;;24.67
50206;BMP280;36098;48.390;10.856;2023-03-20T09:06:43;96417.19;;;24.55
50206;BMP280;36098;48.390;10.856;2023-03-20T09:09:08;96417.19;;;24.45
50206;BMP280;36098;48.390;10.856;2023-03-20T09:11:34;96417.22;;;24.40
50206;BMP280;36098;48.390;10.856;2023-03-20T09:13:59;96419.88;;;24.35
50206;BMP280;36098;48.390;10.856;2023-03-20T09:16:25;96414.59;;;24.35
50206;BMP280;36098;48.390;10.856;2023-03-20T09:18:50;96413.00;;;24.34
50206;BMP280;36098;48.390;10.856;2023-03-20T09:21:15;96417.25;;;24.25
50206;BMP280;36098;48.390;10.856;2023-03-20T09:23:40;96416.44;;;24.25
50206;BMP280;36098;48.390;10.856;2023-03-20T09:26:06;96408.31;;;24.16
50206;BMP280;36098;48.390;10.856;2023-03-20T09:28:31;96412.56;;;24.07
50206;BMP280;36098;48.390;10.856;2023-03-20T09:30:56;96413.09;;;23.99
50206;BMP280;36098;48.390;10.856;2023-03-20T09:33:22;96409.94;;;23.87
50206;BMP280;36098;48.390;10.856;2023-03-20T09:35:47;96405.97;;;23.75
50206;BMP280;36098;48.390;10.856;2023-03-20T09:38:12;96403.91;;;23.87
50206;BMP280;36098;48.390;10.856;2023-03-20T09:43:09;96395.69;;;23.53
50206;BMP280;36098;48.390;10.856;2023-03-20T09:45:42;96400.72;;;23.60
50206;BMP280;36098;48.390;10.856;2023-03-20T09:48:14;96407.31;;;23.52
50206;BMP280;36098;48.390;10.856;2023-03-20T09:50:45;96405.44;;;23.63
50206;BMP280;36098;48.390;10.856;2023-03-20T09:53:29;96402.03;;;23.42
50206;BMP280;36098;48.390;10.856;2023-03-20T09:55:57;96405.19;;;23.34
50206;BMP280;36098;48.390;10.856;2023-03-20T09:58:23;96404.69;;;23.57
50206;BMP280;36098;48.390;10.856;2023-03-20T10:00:50;96403.63;;;23.53
50206;BMP280;36098;48.390;10.856;2023-03-20T10:06:06;96399.94;;;23.64
50206;BMP280;36098;48.390;10.856;2023-03-20T10:08:36;96397.81;;;23.51
50206;BMP280;36098;48.390;10.856;2023-03-20T10:13:53;96397.81;;;23.46
50206;BMP280;36098;48.390;10.856;2023-03-20T10:21:46;96392.03;;;23.64
50206;BMP280;36098;48.390;10.856;2023-03-20T10:24:31;96383.03;;;23.80
50206;BMP280;36098;48.390;10.856;2023-03-20T10:27:00;96397.00;;;23.66
50206;BMP280;36098;48.390;10.856;2023-03-20T10:32:07;96389.13;;;23.51
50206;BMP280;36098;48.390;10.856;2023-03-20T10:42:40;96389.91;;;23.66
50206;BMP280;36098;48.390;10.856;2023-03-20T10:45:25;96375.66;;;23.72
50206;BMP280;36098;48.390;10.856;2023-03-20T10:47:51;96387.28;;;23.76
50206;BMP280;36098;48.390;10.856;2023-03-20T10:50:18;96375.66;;;23.72
50206;BMP280;36098;48.390;10.856;2023-03-20T10:52:46;96382.00;;;23.61
50206;BMP280;36098;48.390;10.856;2023-03-20T10:55:15;96375.94;;;23.46
50206;BMP280;36098;48.390;10.856;2023-03-20T10:57:43;96380.97;;;23.47
50206;BMP280;36098;48.390;10.856;2023-03-20T11:00:16;96378.06;;;23.49
50206;BMP280;36098;48.390;10.856;2023-03-20T11:02:43;96376.22;;;23.44
50206;BMP280;36098;48.390;10.856;2023-03-20T11:05:27;96370.66;;;23.61
50206;BMP280;36098;48.390;10.856;2023-03-20T11:08:00;96370.41;;;23.67
50206;BMP280;36098;48.390;10.856;2023-03-20T11:10:26;96375.69;;;23.82
50206;BMP280;36098;48.390;10.856;2023-03-20T11:12:51;96373.00;;;24.02
50206;BMP280;36098;48.390;10.856;2023-03-20T11:15:26;96375.91;;;24.06
50206;BMP280;36098;48.390;10.856;2023-03-20T11:20:20;96376.13;;;24.09
50206;BMP280;36098;48.390;10.856;2023-03-20T11:22:46;96372.97;;;24.07
50206;BMP280;36098;48.390;10.856;2023-03-20T11:25:27;96373.84;;;23.68
50206;BMP280;36098;48.390;10.856;2023-03-20T11:27:54;96378.31;;;23.67
50206;BMP280;36098;48.390;10.856;2023-03-20T11:30:20;96388.59;;;23.74
50206;BMP280;36098;48.390;10.856;2023-03-20T11:32:48;96378.03;;;23.74
50206;BMP280;36098;48.390;10.856;2023-03-20T11:37:42;96376.19;;;23.99
50206;BMP280;36098;48.390;10.856;2023-03-20T11:42:32;96378.78;;;24.09
50206;BMP280;36098;48.390;10.856;2023-03-20T11:44:59;96376.69;;;24.06
50206;BMP280;36098;48.390;10.856;2023-03-20T11:47:25;96369.06;;;23.75
50206;BMP280;36098;48.390;10.856;2023-03-20T11:49:58;96370.91;;;23.79
50206;BMP280;36098;48.390;10.856;2023-03-20T11:52:24;96366.13;;;24.06
50206;BMP280;36098;48.390;10.856;2023-03-20T11:54:53;96371.44;;;23.66
50206;BMP280;36098;48.390;10.856;2023-03-20T11:57:30;96369.88;;;23.65
50206;BMP280;36098;48.390;10.856;2023-03-20T11:59:55;96368.81;;;23.96
50206;BMP280;36098;48.390;10.856;2023-03-20T12:02:21;96375.41;;;23.74
50206;BMP280;36098;48.390;10.856;2023-03-20T12:04:47;96377.50;;;23.77
50206;BMP280;36098;48.390;10.856;2023-03-20T12:07:15;96385.09;;;24.08
50206;BMP280;36098;48.390;10.856;2023-03-20T12:09:45;96373.19;;;24.26
50206;BMP280;36098;48.390;10.856;2023-03-20T12:12:21;96365.31;;;24.16
50206;BMP280;36098;48.390;10.856;2023-03-20T12:14:56;96368.28;;;23.84
50206;BMP280;36098;48.390;10.856;2023-03-20T12:19:50;96367.22;;;23.90
50206;BMP280;36098;48.390;10.856;2023-03-20T12:22:20;96364.22;;;24.22
50206;BMP280;36098;48.390;10.856;2023-03-20T12:24:52;96365.63;;;23.99
50206;BMP280;36098;48.390;10.856;2023-03-20T12:27:29;96359.56;;;23.79
50206;BMP280;36098;48.390;10.856;2023-03-20T12:29:58;96354.56;;;23.72
50206;BMP280;36098;48.390;10.856;2023-03-20T12:34:51;96357.50;;;23.56
50206;BMP280;36098;48.390;10.856;2023-03-20T12:37:18;96358.81;;;23.58
50206;BMP280;36098;48.390;10.856;2023-03-20T12:39:51;96359.88;;;23.62
50206;BMP280;36098;48.390;10.856;2023-03-20T12:52:51;96365.13;;;23.62
50206;BMP280;36098;48.390;10.856;2023-03-20T12:55:33;96365.63;;;23.74
50206;BMP280;36098;48.390;10.856;2023-03-20T13:01:02;96362.22;;;23.74
50206;BMP280;36098;48.390;10.856;2023-03-20T13:06:08;96353.75;;;23.77
50206;BMP280;36098;48.390;10.856;2023-03-20T13:16:13;96364.50;;;24.20
50206;BMP280;36098;48.390;10.856;2023-03-20T13:18:51;96354.25;;;24.09
50206;BMP280;36098;48.390;10.856;2023-03-20T13:21:24;96352.97;;;24.01
50206;BMP280;36098;48.390;10.856;2023-03-20T13:28:50;96354.53;;;23.92
50206;BMP280;36098;48.390;10.856;2023-03-20T13:36:12;96348.50;;;23.92
50206;BMP280;36098;48.390;10.856;2023-03-20T13:38:42;96347.69;;;23.71
50206;BMP280;36098;48.390;10.856;2023-03-20T15:12:04;96289.50;;;23.48
50206;BMP280;36098;48.390;10.856;2023-03-20T15:14:32;96275.78;;;23.46
50206;BMP280;36098;48.390;10.856;2023-03-20T15:16:58;96283.16;;;23.44
50206;BMP280;36098;48.390;10.856;2023-03-20T15:19:24;96287.66;;;23.43
50206;BMP280;36098;48.390;10.856;2023-03-20T15:21:49;96278.69;;;23.44
50206;BMP280;36098;48.390;10.856;2023-03-20T15:24:16;96276.59;;;23.46
50206;BMP280;36098;48.390;10.856;2023-03-20T15:26:43;96287.38;;;23.45
50206;BMP280;36098;48.390;10.856;2023-03-20T15:29:09;96277.66;;;23.40
50206;BMP280;36098;48.390;10.856;2023-03-20T15:31:37;96274.50;;;23.38
50206;BMP280;36098;48.390;10.856;2023-03-20T15:34:04;96270.00;;;23.39
50206;BMP280;36098;48.390;10.856;2023-03-20T15:36:31;96265.00;;;23.42
50206;BMP280;36098;48.390;10.856;2023-03-20T15:39:13;96266.59;;;23.43
50206;BMP280;36098;48.390;10.856;2023-03-20T15:41:39;96260.50;;;23.43
50206;BMP280;36098;48.390;10.856;2023-03-20T15:46:35;96264.44;;;23.60
50206;BMP280;36098;48.390;10.856;2023-03-20T15:49:00;96263.88;;;23.68
50206;BMP280;36098;48.390;10.856;2023-03-20T15:51:28;96267.31;;;23.64
50206;BMP280;36098;48.390;10.856;2023-03-20T15:53:53;96270.47;;;23.66
50206;BMP280;36098;48.390;10.856;2023-03-20T15:56:19;96267.31;;;23.64
50206;BMP280;36098;48.390;10.856;2023-03-20T15:58:49;96265.44;;;23.69
50206;BMP280;36098;48.390;10.856;2023-03-20T16:01:17;96263.59;;;23.65
50206;BMP280;36098;48.390;10.856;2023-03-20T16:03:43;96269.16;;;23.68
50206;BMP280;36098;48.390;10.856;2023-03-20T16:06:10;96266.25;;;23.60
50206;BMP280;36098;48.390;10.856;2023-03-20T16:08:35;96261.03;;;23.55
50206;BMP280;36098;48.390;10.856;2023-03-20T16:11:04;96271.81;;;23.63
50206;BMP280;36098;48.390;10.856;2023-03-20T16:13:36;96272.34;;;23.60
50206;BMP280;36098;48.390;10.856;2023-03-20T16:16:03;96271.81;;;23.58
50206;BMP280;36098;48.390;10.856;2023-03-20T16:18:29;96271.81;;;23.63
50206;BMP280;36098;48.390;10.856;2023-03-20T16:20:56;96272.06;;;23.67
50206;BMP280;36098;48.390;10.856;2023-03-20T16:23:26;96266.22;;;23.75
50206;BMP280;36098;48.390;10.856;2023-03-20T16:25:55;96273.09;;;23.71
50206;BMP280;36098;48.390;10.856;2023-03-20T16:28:21;96276.50;;;23.71
50206;BMP280;36098;48.390;10.856;2023-03-20T16:30:46;96278.13;;;23.62
50206;BMP280;36098;48.390;10.856;2023-03-20T16:33:13;96277.34;;;23.62
50206;BMP280;36098;48.390;10.856;2023-03-20T16:35:42;96269.41;;;23.72
50206;BMP280;36098;48.390;10.856;2023-03-20T16:38:13;96274.94;;;23.70
50206;BMP280;36098;48.390;10.856;2023-03-20T16:40:39;96264.69;;;23.69
50206;BMP280;36098;48.390;10.856;2023-03-20T16:43:15;96266.78;;;23.67
50206;BMP280;36098;48.390;10.856;2023-03-20T16:45:42;96270.19;;;23.72
50206;BMP280;36098;48.390;10.856;2023-03-20T16:50:34;96274.41;;;23.68
50206;BMP280;36098;48.390;10.856;2023-03-20T16:53:00;96272.81;;;23.72
50206;BMP280;36098;48.390;10.856;2023-03-20T16:55:27;96265.44;;;23.74
50206;BMP280;36098;48.390;10.856;2023-03-20T16:57:54;96265.44;;;23.69
50206;BMP280;36098;48.390;10.856;2023-03-20T17:00:22;96264.91;;;23.72
50206;BMP280;36098;48.390;10.856;2023-03-20T17:02:49;96272.94;;;23.37
50206;BMP280;36098;48.390;10.856;2023-03-20T17:05:17;96268.44;;;23.38
50206;BMP280;36098;48.390;10.856;2023-03-20T17:07:42;96277.66;;;23.35
50206;BMP280;36098;48.390;10.856;2023-03-20T17:12:36;96277.66;;;23.40
50206;BMP280;36098;48.390;10.856;2023-03-20T17:15:02;96284.53;;;23.27